Time;durP1;ratioP1;P1;durP2;ratioP2;P2;SDS_P1;SDS_P2;PMS_P1;PMS_P2;Temp;Humidity;BMP_temperature;BMP_pressure;BME280_temperature;BME280_humidity;BME280_pressure;Samples;Min_cycle;Max_cycle;Signal;HPM_P1;HPM_P2
2024/03/23 00:00:53;;;;;;;4.28;2.22;;;9.40;95.00;;;;;;2024304;29;20234;-71
2024/03/23 00:01:56;;;;;;;3.58;2.10;;;9.40;94.90;;;;;;2021170;29;20233;-73
2024/03/23 00:02:58;;;;;;;2.50;1.80;;;9.40;94.90;;;;;;2031377;29;20231;-72
2024/03/23 00:04:03;;;;;;;5.20;1.88;;;9.40;95.00;;;;;;2029945;29;20236;-72
2024/03/23 00:05:06;;;;;;;2.45;2.03;;;9.40;94.80;;;;;;2029622;29;20643;-72
2024/03/23 00:06:08;;;;;;;2.60;1.73;;;9.40;95.10;;;;;;2028888;29;20193;-72
2024/03/23 00:07:10;;;;;;;2.17;1.83;;;9.40;95.20;;;;;;2033658;29;20189;-73
2024/03/23 00:08:12;;;;;;;2.05;1.85;;;9.40;95.30;;;;;;2029926;29;20217;-70
2024/03/23 00:09:14;;;;;;;3.13;2.10;;;9.30;95.40;;;;;;2031280;29;20197;-74
2024/03/23 00:10:16;;;;;;;2.10;1.65;;;9.40;95.50;;;;;;2030669;29;20189;-72
2024/03/23 00:11:20;;;;;;;2.47;1.67;;;9.40;95.60;;;;;;2031436;29;20212;-73
2024/03/23 00:12:22;;;;;;;4.97;2.03;;;9.30;95.60;;;;;;2024527;29;20288;-72
2024/03/23 00:13:24;;;;;;;4.90;2.20;;;9.30;95.70;;;;;;2015892;29;20729;-71
2024/03/23 00:14:27;;;;;;;2.50;1.67;;;9.40;95.60;;;;;;2021957;29;20980;-70
2024/03/23 00:15:31;;;;;;;2.53;1.90;;;9.40;95.70;;;;;;2030203;29;20712;-72
2024/03/23 00:16:33;;;;;;;3.63;2.38;;;9.40;95.70;;;;;;2029439;29;20739;-71
2024/03/23 00:17:35;;;;;;;3.28;2.00;;;9.40;95.90;;;;;;2029475;29;20229;-71
2024/03/23 00:18:37;;;;;;;2.85;1.92;;;9.40;95.90;;;;;;2033060;29;20228;-70
2024/03/23 00:19:39;;;;;;;2.75;1.88;;;9.40;96.00;;;;;;2029944;29;20220;-70
2024/03/23 00:20:42;;;;;;;2.35;1.52;;;9.40;95.80;;;;;;2032690;29;20239;-70
2024/03/23 00:21:44;;;;;;;2.88;2.10;;;9.40;95.80;;;;;;2029847;29;20319;-70
2024/03/23 00:22:46;;;;;;;2.92;2.13;;;9.40;95.80;;;;;;2029107;29;20735;-71
2024/03/23 00:23:48;;;;;;;2.35;1.95;;;9.50;95.80;;;;;;2027740;29;20244;-71
2024/03/23 00:24:51;;;;;;;2.33;1.92;;;9.50;95.60;;;;;;2027836;29;20236;-70
2024/03/23 00:25:53;;;;;;;3.17;1.52;;;9.50;95.50;;;;;;2026230;29;20244;-71
2024/03/23 00:26:55;;;;;;;2.42;1.63;;;9.50;95.50;;;;;;2030640;29;20232;-70
2024/03/23 00:27:57;;;;;;;3.25;1.85;;;9.60;95.70;;;;;;2029789;29;20235;-69
2024/03/23 00:28:59;;;;;;;3.10;1.40;;;9.50;95.70;;;;;;2029460;29;20229;-68
2024/03/23 00:30:01;;;;;;;3.08;1.73;;;9.60;95.70;;;;;;2025073;29;20228;-71
2024/03/23 00:31:04;;;;;;;3.05;1.65;;;9.60;95.60;;;;;;2029250;29;20260;-70
2024/03/23 00:32:06;;;;;;;3.33;1.73;;;9.50;95.50;;;;;;2029902;29;20200;-70
2024/03/23 00:33:08;;;;;;;3.65;1.40;;;9.60;95.50;;;;;;2028058;29;20193;-70
2024/03/23 00:34:10;;;;;;;3.45;1.42;;;9.50;95.80;;;;;;2030315;29;20196;-71
2024/03/23 00:35:12;;;;;;;2.38;2.05;;;9.60;95.80;;;;;;2030224;29;20193;-71
2024/03/23 00:36:14;;;;;;;2.30;1.70;;;9.60;95.80;;;;;;2028985;29;20205;-72
2024/03/23 00:37:16;;;;;;;4.43;1.70;;;9.60;95.70;;;;;;2030024;29;20215;-71
2024/03/23 00:38:21;;;;;;;3.00;1.80;;;9.70;95.60;;;;;;2031519;29;20185;-70
2024/03/23 00:39:24;;;;;;;4.93;2.03;;;9.70;95.30;;;;;;2030611;29;20243;-72
2024/03/23 00:40:26;;;;;;;2.22;1.60;;;9.70;95.30;;;;;;2032110;29;20236;-72
2024/03/23 00:41:28;;;;;;;2.13;1.80;;;9.70;95.30;;;;;;2029069;29;20247;-70
2024/03/23 00:42:30;;;;;;;2.95;1.40;;;9.70;95.30;;;;;;2032171;29;20228;-71
2024/03/23 00:43:32;;;;;;;2.25;1.70;;;9.60;95.30;;;;;;2028957;29;20243;-70
2024/03/23 00:44:34;;;;;;;2.45;1.30;;;9.60;95.20;;;;;;2021413;29;20245;-72
2024/03/23 00:45:37;;;;;;;2.30;1.80;;;9.60;95.20;;;;;;2021675;29;20248;-71
2024/03/23 00:46:39;;;;;;;2.70;1.77;;;9.60;95.30;;;;;;2020948;29;20709;-72
2024/03/23 00:47:42;;;;;;;2.83;2.00;;;9.60;95.40;;;;;;2022257;29;20618;-71
2024/03/23 00:48:45;;;;;;;1.63;1.50;;;9.60;96.30;;;;;;2034063;29;20604;-74
2024/03/23 00:49:47;;;;;;;2.67;1.40;;;9.50;96.10;;;;;;2029105;29;20701;-72
2024/03/23 00:50:49;;;;;;;3.03;1.50;;;9.50;96.80;;;;;;2031389;29;20712;-72
2024/03/23 00:51:51;;;;;;;3.70;1.52;;;9.40;97.30;;;;;;2029006;29;20240;-73
2024/03/23 00:52:53;;;;;;;1.58;1.42;;;9.40;97.40;;;;;;2031596;29;20701;-71
2024/03/23 00:53:54;;;;;;;3.30;1.50;;;9.50;97.20;;;;;;2030132;29;20608;-70
2024/03/23 00:54:55;;;;;;;2.85;1.80;;;9.40;97.30;;;;;;2025898;29;20272;-72
2024/03/23 00:55:56;;;;;;;3.70;2.23;;;9.40;97.30;;;;;;2015693;29;20289;-73
2024/03/23 00:56:56;;;;;;;2.03;1.90;;;9.50;97.00;;;;;;2017759;29;20681;-71
2024/03/23 00:57:57;;;;;;;2.07;1.70;;;9.50;96.70;;;;;;2026455;29;20336;-70
2024/03/23 00:58:58;;;;;;;2.97;2.00;;;9.50;96.60;;;;;;2021485;29;20243;-69
2024/03/23 00:59:58;;;;;;;2.40;2.00;;;9.50;96.60;;;;;;2022482;29;20245;-68
2024/03/23 01:00:59;;;;;;;1.67;1.57;;;9.40;96.60;;;;;;2021756;29;20702;-71
2024/03/23 01:01:59;;;;;;;1.80;1.50;;;9.40;96.80;;;;;;2021472;29;20241;-68
2024/03/23 01:03:00;;;;;;;3.10;1.80;;;9.40;97.10;;;;;;2030165;29;20237;-70
2024/03/23 01:04:02;;;;;;;2.50;1.90;;;9.30;97.10;;;;;;2028307;29;20233;-69
2024/03/23 01:05:03;;;;;;;2.33;1.75;;;9.30;97.50;;;;;;2021397;29;20268;-71
2024/03/23 01:06:04;;;;;;;2.05;1.48;;;9.30;97.60;;;;;;2029204;29;20207;-71
2024/03/23 01:07:05;;;;;;;3.10;1.87;;;9.40;97.90;;;;;;2028896;29;20317;-71
2024/03/23 01:08:06;;;;;;;2.33;1.93;;;9.40;97.90;;;;;;2021823;29;20194;-69
2024/03/23 01:09:08;;;;;;;2.08;1.88;;;9.50;97.80;;;;;;2021992;29;20233;-70
2024/03/23 01:10:09;;;;;;;3.17;1.63;;;9.50;97.90;;;;;;2022253;29;20268;-70
2024/03/23 01:11:10;;;;;;;2.47;1.60;;;9.60;98.00;;;;;;2022586;29;20213;-70
2024/03/23 01:12:11;;;;;;;2.10;1.90;;;9.50;98.00;;;;;;2020741;29;20190;-69
2024/03/23 01:13:11;;;;;;;2.57;1.90;;;9.50;98.00;;;;;;2029092;29;20625;-73
2024/03/23 01:14:12;;;;;;;3.67;2.30;;;9.70;98.00;;;;;;2023656;29;20192;-72
2024/03/23 01:15:13;;;;;;;3.23;2.07;;;9.80;98.00;;;;;;2028994;29;20399;-72
2024/03/23 01:16:13;;;;;;;3.47;1.87;;;9.90;97.90;;;;;;2028907;29;20202;-71
2024/03/23 01:17:14;;;;;;;2.23;2.03;;;10.00;97.50;;;;;;2022120;29;20248;-71
2024/03/23 01:18:15;;;;;;;1.90;1.40;;;10.10;97.30;;;;;;2030076;29;20185;-71
2024/03/23 01:19:15;;;;;;;2.03;1.83;;;10.10;96.90;;;;;;2029555;29;20741;-71
2024/03/23 01:20:16;;;;;;;3.03;1.80;;;10.20;96.60;;;;;;2021656;29;20213;-71
2024/03/23 01:21:17;;;;;;;3.57;1.77;;;10.30;95.90;;;;;;2029232;29;20188;-71
2024/03/23 01:22:17;;;;;;;3.40;1.87;;;10.40;95.70;;;;;;2028963;29;20184;-71
2024/03/23 01:23:18;;;;;;;2.57;1.80;;;10.40;95.60;;;;;;2023637;29;20214;-72
2024/03/23 01:24:19;;;;;;;3.83;2.20;;;10.50;95.80;;;;;;2031413;29;20677;-70
2024/03/23 01:25:19;;;;;;;2.60;1.90;;;10.50;95.80;;;;;;2030979;29;20389;-70
2024/03/23 01:26:20;;;;;;;2.87;1.93;;;10.50;95.80;;;;;;2030151;29;20710;-69
2024/03/23 01:27:21;;;;;;;1.97;1.70;;;10.60;95.50;;;;;;2029060;29;20248;-68
2024/03/23 01:28:22;;;;;;;3.17;2.00;;;10.50;95.40;;;;;;2030237;29;20236;-71
2024/03/23 01:29:22;;;;;;;3.00;2.27;;;10.60;95.30;;;;;;2032186;29;20241;-72
2024/03/23 01:30:23;;;;;;;3.10;2.23;;;10.60;95.50;;;;;;2032144;29;20467;-68
2024/03/23 01:31:24;;;;;;;2.70;2.30;;;10.70;95.10;;;;;;2023498;29;20649;-70
2024/03/23 01:32:24;;;;;;;3.23;1.93;;;10.80;95.40;;;;;;2031095;29;20244;-72
2024/03/23 01:33:25;;;;;;;3.07;2.00;;;10.80;95.40;;;;;;2030644;29;20256;-72
2024/03/23 01:34:27;;;;;;;3.20;2.20;;;10.80;95.20;;;;;;2023479;29;20240;-70
2024/03/23 01:35:28;;;;;;;2.88;1.75;;;10.90;95.00;;;;;;2031035;29;20329;-71
2024/03/23 01:36:29;;;;;;;2.80;2.15;;;11.00;94.80;;;;;;2031383;29;20356;-71
2024/03/23 01:37:30;;;;;;;2.43;2.00;;;11.00;94.70;;;;;;2031349;29;20788;-71
2024/03/23 01:38:30;;;;;;;2.73;2.20;;;11.10;94.60;;;;;;2031873;29;20235;-71
2024/03/23 01:39:31;;;;;;;3.23;2.20;;;11.20;94.20;;;;;;2023141;29;20289;-72
2024/03/23 01:40:32;;;;;;;2.80;2.20;;;11.30;94.00;;;;;;2023453;29;20241;-71
2024/03/23 01:41:33;;;;;;;3.50;2.23;;;11.20;94.30;;;;;;2030087;29;20307;-71
2024/03/23 01:42:33;;;;;;;2.60;2.10;;;11.30;94.30;;;;;;2030902;29;20293;-71
2024/03/23 01:43:34;;;;;;;2.17;1.97;;;11.20;94.30;;;;;;2030661;29;20264;-71
2024/03/23 01:44:34;;;;;;;2.30;2.10;;;11.30;94.30;;;;;;2038805;29;20697;-71
2024/03/23 01:45:36;;;;;;;7.67;2.40;;;11.30;94.30;;;;;;2036464;29;20320;-71
2024/03/23 01:46:41;;;;;;;3.72;2.10;;;11.30;94.40;;;;;;2023179;29;20235;-71
2024/03/23 01:47:42;;;;;;;2.92;1.95;;;11.40;94.20;;;;;;2014810;29;20266;-72
2024/03/23 01:48:43;;;;;;;4.30;2.43;;;11.40;94.20;;;;;;2017041;29;20686;-71
2024/03/23 01:49:43;;;;;;;3.40;1.90;;;11.40;94.30;;;;;;2021215;29;20324;-71
2024/03/23 01:50:44;;;;;;;6.67;2.33;;;11.50;94.10;;;;;;2026982;29;20240;-71
2024/03/23 01:51:45;;;;;;;4.83;2.07;;;11.60;93.90;;;;;;2038754;29;20232;-70
2024/03/23 01:52:47;;;;;;;4.57;2.10;;;11.70;93.90;;;;;;2031469;29;20689;-71
2024/03/23 01:53:47;;;;;;;3.60;2.15;;;11.70;93.70;;;;;;2016348;29;20746;-71
2024/03/23 01:54:48;;;;;;;3.70;2.20;;;11.70;93.50;;;;;;2015829;29;20245;-71
2024/03/23 01:55:51;;;;;;;2.70;2.20;;;11.80;93.60;;;;;;2023310;29;20237;-70
2024/03/23 01:56:52;;;;;;;3.47;2.35;;;11.80;93.50;;;;;;2031751;29;20328;-71
2024/03/23 01:57:56;;;;;;;4.20;2.45;;;11.80;93.50;;;;;;2027818;29;20772;-70
2024/03/23 01:58:57;;;;;;;4.10;2.67;;;11.90;93.30;;;;;;2035631;29;20254;-71
2024/03/23 01:59:57;;;;;;;2.90;2.30;;;11.90;93.10;;;;;;2039548;29;20760;-71
2024/03/23 02:00:58;;;;;;;3.40;2.53;;;12.00;93.10;;;;;;2038845;29;20318;-71
2024/03/23 02:01:59;;;;;;;4.47;2.73;;;12.00;92.80;;;;;;2038646;29;20297;-70
2024/03/23 02:03:00;;;;;;;3.97;2.70;;;12.00;92.50;;;;;;2029911;29;20241;-71
2024/03/23 02:04:00;;;;;;;6.53;2.50;;;12.10;92.50;;;;;;2022891;29;20221;-72
2024/03/23 02:05:01;;;;;;;2.87;2.30;;;12.10;92.00;;;;;;2020830;29;21410;-71
2024/03/23 02:06:02;;;;;;;2.53;2.20;;;12.10;92.20;;;;;;2041229;28;20185;-70
2024/03/23 02:07:05;;;;;;;4.60;2.47;;;12.10;92.10;;;;;;2039150;29;20252;-71
2024/03/23 02:08:06;;;;;;;3.40;2.40;;;12.20;92.20;;;;;;2023531;29;20193;-71
2024/03/23 02:09:07;;;;;;;5.87;2.40;;;12.20;92.00;;;;;;2030012;29;20189;-71
2024/03/23 02:10:09;;;;;;;6.27;3.37;;;12.10;91.80;;;;;;2023714;29;20201;-70
2024/03/23 02:11:10;;;;;;;5.70;2.75;;;12.10;91.80;;;;;;2018036;29;20601;-73
2024/03/23 02:12:11;;;;;;;4.37;2.30;;;12.10;92.00;;;;;;2020385;29;20197;-70
2024/03/23 02:13:12;;;;;;;5.77;2.40;;;12.10;92.20;;;;;;2026697;29;20186;-70
2024/03/23 02:14:13;;;;;;;3.70;2.60;;;12.10;92.40;;;;;;2031234;29;21079;-70
2024/03/23 02:15:14;;;;;;;8.70;2.55;;;12.10;92.20;;;;;;2038389;29;20240;-72
2024/03/23 02:16:14;;;;;;;3.80;2.20;;;12.10;92.20;;;;;;2031909;29;20197;-72
2024/03/23 02:17:15;;;;;;;3.97;2.87;;;12.20;92.00;;;;;;2030642;29;20188;-71
2024/03/23 02:18:16;;;;;;;2.50;2.17;;;12.20;91.90;;;;;;2030687;29;20288;-72
2024/03/23 02:19:17;;;;;;;6.20;2.50;;;12.10;92.00;;;;;;2023068;29;20428;-71
2024/03/23 02:20:17;;;;;;;4.47;2.63;;;12.20;91.90;;;;;;2015590;29;20195;-71
2024/03/23 02:21:18;;;;;;;3.10;2.53;;;12.20;91.80;;;;;;2022353;29;20182;-72
2024/03/23 02:22:19;;;;;;;5.10;2.50;;;12.20;91.90;;;;;;2023071;29;20206;-71
2024/03/23 02:23:19;;;;;;;3.73;2.40;;;12.20;91.90;;;;;;2021922;29;20898;-71
2024/03/23 02:24:20;;;;;;;3.50;2.50;;;12.20;92.00;;;;;;2014723;29;20182;-71
2024/03/23 02:25:21;;;;;;;3.43;2.27;;;12.30;92.00;;;;;;2022066;29;20928;-71
2024/03/23 02:26:21;;;;;;;3.60;2.63;;;12.30;91.90;;;;;;2030954;29;20266;-71
2024/03/23 02:27:24;;;;;;;4.43;3.17;;;12.30;91.70;;;;;;2031683;29;20229;-72
2024/03/23 02:28:24;;;;;;;3.10;2.38;;;12.30;91.80;;;;;;2026240;29;20676;-71
2024/03/23 02:29:25;;;;;;;4.23;2.40;;;12.30;91.90;;;;;;2033713;29;20267;-71
2024/03/23 02:30:26;;;;;;;3.20;2.50;;;12.30;92.10;;;;;;2039394;29;20712;-72
2024/03/23 02:31:27;;;;;;;5.07;2.70;;;12.30;92.20;;;;;;2038124;29;20220;-72
2024/03/23 02:32:28;;;;;;;3.90;2.40;;;12.30;92.00;;;;;;2029593;29;20393;-71
2024/03/23 02:33:28;;;;;;;3.17;2.43;;;12.30;91.80;;;;;;2018285;29;20767;-71
2024/03/23 02:34:29;;;;;;;4.13;2.57;;;12.40;92.00;;;;;;2032218;29;20240;-71
2024/03/23 02:35:30;;;;;;;4.30;2.83;;;12.30;91.90;;;;;;2027336;29;20241;-72
2024/03/23 02:36:31;;;;;;;3.60;2.20;;;12.30;92.10;;;;;;2022178;29;20229;-71
2024/03/23 02:37:32;;;;;;;3.13;2.40;;;12.30;91.90;;;;;;2026184;29;20291;-72
2024/03/23 02:38:32;;;;;;;3.58;2.70;;;12.20;92.30;;;;;;2034080;29;20232;-72
2024/03/23 02:39:33;;;;;;;4.47;2.37;;;12.20;92.00;;;;;;2037770;29;20232;-71
2024/03/23 02:40:34;;;;;;;4.47;2.23;;;12.20;91.60;;;;;;2033402;29;20264;-71
2024/03/23 02:41:35;;;;;;;4.53;2.10;;;12.20;91.90;;;;;;2029247;29;20318;-72
2024/03/23 02:42:35;;;;;;;2.37;1.80;;;12.20;92.10;;;;;;2030505;29;20314;-72
2024/03/23 02:43:36;;;;;;;6.20;2.30;;;12.20;92.20;;;;;;2022926;29;20303;-72
2024/03/23 02:44:36;;;;;;;3.53;2.17;;;12.10;91.90;;;;;;2014948;29;20248;-71
2024/03/23 02:45:37;;;;;;;2.53;2.00;;;12.20;91.50;;;;;;2014247;29;20254;-72
2024/03/23 02:46:38;;;;;;;4.67;2.40;;;12.10;91.40;;;;;;2022199;29;20229;-72
2024/03/23 02:47:39;;;;;;;2.95;2.13;;;12.10;91.60;;;;;;2037600;29;20343;-72
2024/03/23 02:48:39;;;;;;;3.20;2.10;;;12.00;90.90;;;;;;2038544;29;20688;-72
2024/03/23 02:49:40;;;;;;;2.80;2.10;;;12.10;90.60;;;;;;2029575;29;20257;-73
2024/03/23 02:50:41;;;;;;;3.47;2.00;;;12.00;87.80;;;;;;2016684;29;20290;-72
2024/03/23 02:51:41;;;;;;;3.17;2.10;;;12.00;88.10;;;;;;2019676;29;20700;-71
2024/03/23 02:52:42;;;;;;;2.90;1.77;;;12.00;88.60;;;;;;2030909;29;20232;-72
2024/03/23 02:53:43;;;;;;;2.50;1.80;;;11.90;89.30;;;;;;2026358;29;20293;-72
2024/03/23 02:54:45;;;;;;;3.93;2.53;;;11.90;89.30;;;;;;2026009;29;20229;-72
2024/03/23 02:55:45;;;;;;;3.00;1.80;;;12.00;86.20;;;;;;2030515;29;20239;-71
2024/03/23 02:56:46;;;;;;;3.40;1.67;;;11.80;85.10;;;;;;2027775;29;20327;-72
2024/03/23 02:57:47;;;;;;;5.77;2.00;;;11.80;86.30;;;;;;2026159;29;20272;-72
2024/03/23 02:58:47;;;;;;;3.20;1.97;;;11.70;86.80;;;;;;2026677;29;20377;-71
2024/03/23 02:59:48;;;;;;;8.97;2.13;;;11.70;86.30;;;;;;2021495;29;20870;-72
2024/03/23 03:00:49;;;;;;;3.43;2.10;;;11.60;85.30;;;;;;2022914;29;20237;-71
2024/03/23 03:01:49;;;;;;;4.90;1.90;;;11.60;85.60;;;;;;2021124;29;20249;-72
2024/03/23 03:02:50;;;;;;;5.30;1.90;;;11.60;85.20;;;;;;2013962;29;20234;-72
2024/03/23 03:03:51;;;;;;;4.47;1.87;;;11.60;85.90;;;;;;2022006;29;20237;-72
2024/03/23 03:04:51;;;;;;;3.30;1.73;;;11.50;85.80;;;;;;2013878;29;20246;-71
2024/03/23 03:05:56;;;;;;;3.93;1.83;;;11.60;85.30;;;;;;2006382;29;20262;-71
2024/03/23 03:06:57;;;;;;;3.45;2.25;;;11.50;85.80;;;;;;2022244;29;20241;-72
2024/03/23 03:07:57;;;;;;;4.97;2.23;;;11.50;85.50;;;;;;2036817;29;20228;-72
2024/03/23 03:08:58;;;;;;;2.50;1.60;;;11.50;85.80;;;;;;2038967;29;20224;-72
2024/03/23 03:09:59;;;;;;;2.87;1.63;;;11.40;86.00;;;;;;2038574;29;20239;-72
2024/03/23 03:10:59;;;;;;;2.80;1.90;;;11.50;86.10;;;;;;2038885;29;20231;-71
2024/03/23 03:12:01;;;;;;;3.60;2.00;;;11.50;85.60;;;;;;2037215;29;20224;-71
2024/03/23 03:13:03;;;;;;;2.95;1.70;;;11.50;85.60;;;;;;2036987;29;20235;-71
2024/03/23 03:14:03;;;;;;;2.25;1.73;;;11.50;84.60;;;;;;2022675;29;20266;-71
2024/03/23 03:15:05;;;;;;;2.70;1.50;;;11.50;84.60;;;;;;2014824;29;20289;-71
2024/03/23 03:16:10;;;;;;;2.53;1.70;;;11.50;85.30;;;;;;2023388;29;20208;-71
2024/03/23 03:17:10;;;;;;;1.83;1.55;;;11.50;85.10;;;;;;2021313;29;20201;-72
2024/03/23 03:18:11;;;;;;;3.53;1.80;;;11.50;85.00;;;;;;2029707;29;20222;-72
2024/03/23 03:19:12;;;;;;;4.13;1.70;;;11.50;84.40;;;;;;2036866;29;20212;-71
2024/03/23 03:20:13;;;;;;;2.70;1.73;;;11.50;84.00;;;;;;2037792;29;20212;-72
2024/03/23 03:21:13;;;;;;;3.00;2.10;;;11.50;84.40;;;;;;2037201;29;20192;-72
2024/03/23 03:22:14;;;;;;;3.73;1.80;;;11.50;83.80;;;;;;2029366;29;20740;-71
2024/03/23 03:23:15;;;;;;;4.43;2.23;;;11.50;84.00;;;;;;2037331;29;20216;-72
2024/03/23 03:24:16;;;;;;;2.97;1.90;;;11.50;85.40;;;;;;2034206;29;20611;-71
2024/03/23 03:25:17;;;;;;;4.13;1.95;;;11.50;84.30;;;;;;2021667;29;20197;-72
2024/03/23 03:26:18;;;;;;;2.87;1.50;;;11.50;84.30;;;;;;2021800;29;20189;-71
2024/03/23 03:27:19;;;;;;;3.57;1.90;;;11.50;83.60;;;;;;2024222;29;20189;-71
2024/03/23 03:28:20;;;;;;;2.25;1.48;;;11.50;82.80;;;;;;2030653;29;20672;-71
2024/03/23 03:29:21;;;;;;;5.30;1.90;;;11.50;83.60;;;;;;2035525;29;20225;-72
2024/03/23 03:30:22;;;;;;;2.30;1.90;;;11.50;84.60;;;;;;2028271;29;20236;-72
2024/03/23 03:31:22;;;;;;;2.20;1.60;;;11.50;83.10;;;;;;2020689;29;20233;-71
2024/03/23 03:32:23;;;;;;;2.77;1.73;;;11.60;83.60;;;;;;2021176;29;20230;-71
2024/03/23 03:33:24;;;;;;;4.27;1.70;;;11.60;83.00;;;;;;2012157;29;20233;-72
2024/03/23 03:34:24;;;;;;;4.00;2.00;;;11.50;83.60;;;;;;2021058;29;20609;-71
2024/03/23 03:35:25;;;;;;;2.47;1.60;;;11.60;82.90;;;;;;2036353;29;20236;-72
2024/03/23 03:36:26;;;;;;;2.73;2.13;;;11.60;82.60;;;;;;2028752;29;20279;-72
2024/03/23 03:37:26;;;;;;;2.20;1.83;;;11.60;82.60;;;;;;2028191;29;20236;-71
2024/03/23 03:38:27;;;;;;;4.93;2.00;;;11.60;82.50;;;;;;2025261;29;20618;-72
2024/03/23 03:39:28;;;;;;;2.10;1.90;;;11.60;83.30;;;;;;2025141;29;20234;-71
2024/03/23 03:40:28;;;;;;;4.17;2.07;;;11.60;83.40;;;;;;2028598;29;20292;-71
2024/03/23 03:41:30;;;;;;;2.70;1.90;;;11.60;83.60;;;;;;2036068;29;20254;-72
2024/03/23 03:42:31;;;;;;;2.78;1.90;;;11.60;83.50;;;;;;2038302;29;20800;-71
2024/03/23 03:43:32;;;;;;;3.27;1.77;;;11.70;83.30;;;;;;2024301;29;20267;-72
2024/03/23 03:44:33;;;;;;;2.60;1.77;;;11.60;83.70;;;;;;2024766;29;20372;-72
2024/03/23 03:45:33;;;;;;;3.90;1.80;;;11.60;83.90;;;;;;2028951;29;20693;-72
2024/03/23 03:46:34;;;;;;;2.80;1.80;;;11.60;83.90;;;;;;2022368;29;20320;-72
2024/03/23 03:47:35;;;;;;;2.70;1.90;;;11.60;84.50;;;;;;2021177;29;20312;-72
2024/03/23 03:48:35;;;;;;;5.00;2.40;;;11.70;83.80;;;;;;2028858;29;20311;-71
2024/03/23 03:49:36;;;;;;;2.23;1.90;;;11.70;83.00;;;;;;2031848;29;20228;-72
2024/03/23 03:50:37;;;;;;;3.80;1.97;;;11.70;83.40;;;;;;2031681;29;20235;-72
2024/03/23 03:51:37;;;;;;;2.90;1.90;;;11.70;83.20;;;;;;2020496;29;20618;-72
2024/03/23 03:52:38;;;;;;;2.23;1.90;;;11.60;84.00;;;;;;2017051;29;20229;-72
2024/03/23 03:53:39;;;;;;;2.73;2.00;;;11.70;83.80;;;;;;2021291;29;20238;-71
2024/03/23 03:54:39;;;;;;;5.93;2.20;;;11.70;83.60;;;;;;2021078;29;20714;-71
2024/03/23 03:55:40;;;;;;;3.33;1.97;;;11.60;84.20;;;;;;2021240;29;20657;-71
2024/03/23 03:56:41;;;;;;;5.87;1.90;;;11.50;84.70;;;;;;2020464;29;20261;-71
2024/03/23 03:57:42;;;;;;;3.80;2.07;;;11.50;85.30;;;;;;2029661;29;20716;-71
2024/03/23 03:58:42;;;;;;;3.13;2.23;;;11.50;85.80;;;;;;2021174;29;20320;-72
2024/03/23 03:59:44;;;;;;;2.90;2.10;;;11.50;87.00;;;;;;2020226;29;20498;-71
2024/03/23 04:00:44;;;;;;;5.30;2.22;;;11.50;85.90;;;;;;2037618;29;20712;-71
2024/03/23 04:01:45;;;;;;;3.17;2.23;;;11.50;85.60;;;;;;2035328;29;20236;-72
2024/03/23 04:02:46;;;;;;;2.93;2.20;;;11.50;85.70;;;;;;2037551;29;20236;-71
2024/03/23 04:03:47;;;;;;;2.80;2.03;;;11.50;86.60;;;;;;2036785;29;20326;-71
2024/03/23 04:04:47;;;;;;;4.20;2.77;;;11.50;86.40;;;;;;2036065;29;20236;-72
2024/03/23 04:05:54;;;;;;;6.37;2.13;;;11.60;86.40;;;;;;2037131;29;20228;-71
2024/03/23 04:07:02;;;;;;;3.03;2.15;;;11.60;87.00;;;;;;2032814;29;20232;-72
2024/03/23 04:08:04;;;;;;;2.47;2.25;;;11.60;88.90;;;;;;2024183;29;20689;-72
2024/03/23 04:09:06;;;;;;;4.55;2.20;;;11.50;89.10;;;;;;2021383;29;20197;-71
2024/03/23 04:10:07;;;;;;;4.07;2.90;;;11.50;90.00;;;;;;2029149;29;20196;-71
2024/03/23 04:11:08;;;;;;;3.88;2.00;;;11.50;90.50;;;;;;2023100;29;20193;-71
2024/03/23 04:12:09;;;;;;;3.70;2.50;;;11.30;92.20;;;;;;2013161;29;20655;-72
2024/03/23 04:13:10;;;;;;;3.28;2.00;;;11.30;91.90;;;;;;2021038;29;20197;-72
2024/03/23 04:14:10;;;;;;;4.40;2.50;;;11.30;91.90;;;;;;2025223;29;20181;-71
2024/03/23 04:15:11;;;;;;;3.57;2.20;;;11.30;91.80;;;;;;2025194;29;20193;-71
2024/03/23 04:16:12;;;;;;;3.67;2.20;;;11.30;92.10;;;;;;2029104;29;20197;-72
2024/03/23 04:17:13;;;;;;;3.03;2.00;;;11.30;92.70;;;;;;2037316;29;20283;-71
2024/03/23 04:18:14;;;;;;;3.60;2.20;;;11.20;92.40;;;;;;2028991;29;20242;-70
2024/03/23 04:19:14;;;;;;;3.45;2.25;;;11.20;92.40;;;;;;2014250;29;20337;-71
2024/03/23 04:20:16;;;;;;;2.63;2.27;;;11.20;92.50;;;;;;2021288;29;20251;-71
2024/03/23 04:21:17;;;;;;;2.95;2.50;;;11.20;92.60;;;;;;2021259;29;20241;-72
2024/03/23 04:22:18;;;;;;;3.03;2.37;;;11.10;93.20;;;;;;2020973;29;20186;-72
2024/03/23 04:23:18;;;;;;;4.43;2.30;;;11.00;93.60;;;;;;2029509;29;20751;-71
2024/03/23 04:24:20;;;;;;;4.10;2.47;;;11.00;94.10;;;;;;2022445;29;20190;-72
2024/03/23 04:25:21;;;;;;;3.70;2.13;;;11.00;94.50;;;;;;2023164;29;20260;-72
2024/03/23 04:26:22;;;;;;;3.43;2.20;;;10.90;94.90;;;;;;2021665;29;20267;-71
2024/03/23 04:27:25;;;;;;;4.57;2.57;;;11.00;95.20;;;;;;2013605;29;20245;-71
2024/03/23 04:28:26;;;;;;;3.85;2.30;;;10.90;95.30;;;;;;2025807;29;20233;-72
2024/03/23 04:29:27;;;;;;;6.37;2.57;;;10.80;95.80;;;;;;2030617;29;20288;-71
2024/03/23 04:30:29;;;;;;;4.93;3.20;;;10.80;95.90;;;;;;2021225;29;20233;-71
2024/03/23 04:31:31;;;;;;;8.35;2.70;;;10.70;96.30;;;;;;2030213;29;20237;-71
2024/03/23 04:32:32;;;;;;;3.47;2.40;;;10.80;96.40;;;;;;2028655;29;20323;-72
2024/03/23 04:33:32;;;;;;;5.17;2.40;;;10.80;96.50;;;;;;2021265;29;20241;-72
2024/03/23 04:34:33;;;;;;;4.30;2.43;;;10.70;96.70;;;;;;2014092;29;20233;-71
2024/03/23 04:35:34;;;;;;;6.27;2.67;;;10.80;96.90;;;;;;2021662;29;20252;-71
2024/03/23 04:36:34;;;;;;;5.43;2.10;;;10.80;97.00;;;;;;2029786;29;20656;-71
2024/03/23 04:37:40;;;;;;;4.27;2.77;;;10.80;97.10;;;;;;2030258;29;20241;-71
2024/03/23 04:38:41;;;;;;;3.17;2.30;;;10.80;97.50;;;;;;2024519;29;20229;-72
2024/03/23 04:39:42;;;;;;;6.03;2.67;;;10.80;96.80;;;;;;2017406;29;20318;-71
2024/03/23 04:40:42;;;;;;;4.17;2.40;;;10.80;96.90;;;;;;2020754;29;20233;-72
2024/03/23 04:41:43;;;;;;;3.70;2.23;;;10.70;97.10;;;;;;2022731;29;20233;-71
2024/03/23 04:42:44;;;;;;;4.87;2.50;;;10.70;97.60;;;;;;2022540;29;20285;-71
2024/03/23 04:43:45;;;;;;;4.20;2.80;;;10.80;97.10;;;;;;2038142;29;20258;-71
2024/03/23 04:44:45;;;;;;;3.93;2.60;;;10.70;97.50;;;;;;2036891;29;20283;-71
2024/03/23 04:45:46;;;;;;;3.93;2.93;;;10.70;97.50;;;;;;2035293;29;20228;-71
2024/03/23 04:46:47;;;;;;;3.27;2.67;;;10.70;97.70;;;;;;2036603;29;20228;-72
2024/03/23 04:47:47;;;;;;;5.07;2.87;;;10.60;98.20;;;;;;2032511;29;20228;-71
2024/03/23 04:48:48;;;;;;;4.50;3.07;;;10.60;98.20;;;;;;2025523;29;20233;-72
2024/03/23 04:49:49;;;;;;;4.83;2.30;;;10.60;98.40;;;;;;2020791;29;20305;-71
2024/03/23 04:50:54;;;;;;;3.37;2.60;;;10.70;98.20;;;;;;2021184;29;20598;-71
2024/03/23 04:51:55;;;;;;;3.47;2.35;;;10.70;98.70;;;;;;2012770;29;20264;-71
2024/03/23 04:52:56;;;;;;;6.93;2.90;;;10.60;98.80;;;;;;2018190;29;20226;-72
2024/03/23 04:53:56;;;;;;;4.33;2.90;;;10.70;99.20;;;;;;2021873;29;20229;-71
2024/03/23 04:54:57;;;;;;;4.93;3.10;;;10.60;99.20;;;;;;2020200;29;20615;-71
2024/03/23 04:55:59;;;;;;;3.10;2.63;;;10.60;99.70;;;;;;2028003;29;20239;-71
2024/03/23 04:57:00;;;;;;;3.75;2.60;;;10.50;99.50;;;;;;2020334;29;20232;-71
2024/03/23 04:58:00;;;;;;;3.47;2.80;;;10.50;99.40;;;;;;2015642;29;20716;-70
2024/03/23 04:59:01;;;;;;;5.00;2.93;;;10.50;99.60;;;;;;2022923;29;20241;-72
2024/03/23 05:00:05;;;;;;;3.97;3.30;;;10.50;99.40;;;;;;2026402;29;20832;-71
2024/03/23 05:01:06;;;;;;;3.55;2.67;;;10.60;99.40;;;;;;2024133;29;20855;-72
2024/03/23 05:02:07;;;;;;;4.72;3.45;;;10.60;99.20;;;;;;2024873;29;20259;-72
2024/03/23 05:03:07;;;;;;;4.77;2.93;;;10.50;98.80;;;;;;2025237;29;20197;-71
2024/03/23 05:04:09;;;;;;;4.97;2.80;;;10.50;99.00;;;;;;2025974;29;20293;-71
2024/03/23 05:05:09;;;;;;;4.68;2.67;;;10.50;98.70;;;;;;2017883;29;20221;-72
2024/03/23 05:06:10;;;;;;;4.17;2.73;;;10.60;98.60;;;;;;2029615;29;20718;-71
2024/03/23 05:07:11;;;;;;;5.13;3.10;;;10.60;98.30;;;;;;2029756;29;20189;-72
2024/03/23 05:08:12;;;;;;;5.30;3.03;;;10.60;98.40;;;;;;2022540;29;20706;-72
2024/03/23 05:09:13;;;;;;;5.78;2.67;;;10.70;98.40;;;;;;2022666;29;20452;-72
2024/03/23 05:10:14;;;;;;;4.47;2.80;;;10.70;98.10;;;;;;2014570;29;20190;-72
2024/03/23 05:11:15;;;;;;;5.70;3.10;;;10.70;98.00;;;;;;2024054;29;20193;-71
2024/03/23 05:12:16;;;;;;;5.18;3.45;;;10.80;97.90;;;;;;2021946;29;20196;-72
2024/03/23 05:13:16;;;;;;;3.90;3.00;;;10.80;97.60;;;;;;2027868;29;20698;-71
2024/03/23 05:14:17;;;;;;;6.53;3.43;;;10.80;97.50;;;;;;2030047;29;20264;-72
2024/03/23 05:15:18;;;;;;;5.77;3.30;;;10.80;97.40;;;;;;2021632;29;20188;-71
2024/03/23 05:16:18;;;;;;;5.60;3.17;;;10.80;96.40;;;;;;2014527;29;20242;-71
2024/03/23 05:17:19;;;;;;;3.63;3.20;;;10.80;96.10;;;;;;2022380;29;20189;-71
2024/03/23 05:18:21;;;;;;;5.57;2.83;;;10.70;96.60;;;;;;2022666;29;20640;-71
2024/03/23 05:19:22;;;;;;;2.53;1.88;;;10.60;97.30;;;;;;2022835;29;20713;-71
2024/03/23 05:20:22;;;;;;;3.22;1.95;;;10.50;97.80;;;;;;2030850;29;20248;-70